BAW16 YSSY-WSSS
Flight info
| Callsign | BAW16 |
|---|---|
| Flight time | N/A |
| Altitude | 36000 |
| Route | KADOM A576 PKS G222 AYE/N0482F380 G222 SAPDA/N0479F400 A585 PLB G579 SJ |
| Aircraft | B77W/H-SDE1E3FGHIJ3J4J5J6M1M2P2RWXYZ/LB1D1 |
Departure
| Time | 2026-04-24 15:59 |
|---|---|
| Airport | Sydney Kingsford Smith International Airport (YSSY) |
Arrival
| Time | N/A |
|---|---|
| Airport | Singapore Changi Airport (WSSS) |
| Time | Latitude | Longitude | Altitude | Speed | Heading |
|---|---|---|---|---|---|
| 2026-04-24 14:43 | -33.93890 | 151.16860 | 35 ft | 0 kts | 75° |
| 2026-04-24 15:42 | -33.93892 | 151.16853 | 35 ft | 4 kts | 75° |
| 2026-04-24 15:43 | -33.93899 | 151.16821 | 30 ft | 4 kts | 77° |
| 2026-04-24 15:43 | -33.93903 | 151.16791 | 35 ft | 4 kts | 93° |
| 2026-04-24 15:43 | -33.93900 | 151.16769 | 33 ft | 4 kts | 133° |
| 2026-04-24 15:43 | -33.93896 | 151.16764 | 31 ft | 0 kts | 163° |
| 2026-04-24 15:44 | -33.93918 | 151.16772 | 33 ft | 4 kts | 163° |
| 2026-04-24 15:44 | -33.93938 | 151.16777 | 35 ft | 4 kts | 169° |
| 2026-04-24 15:44 | -33.93947 | 151.16780 | 35 ft | 0 kts | 164° |
| 2026-04-24 15:46 | -33.93948 | 151.16781 | 35 ft | 0 kts | 164° |
| 2026-04-24 15:47 | -33.93965 | 151.16787 | 35 ft | 5 kts | 164° |
| 2026-04-24 15:47 | -33.94019 | 151.16806 | 35 ft | 11 kts | 163° |
| 2026-04-24 15:47 | -33.94052 | 151.16883 | 35 ft | 14 kts | 72° |
| 2026-04-24 15:47 | -33.94019 | 151.17010 | 34 ft | 18 kts | 73° |
| 2026-04-24 15:48 | -33.93985 | 151.17155 | 34 ft | 18 kts | 76° |
| 2026-04-24 15:48 | -33.93885 | 151.17202 | 34 ft | 19 kts | 347° |
| 2026-04-24 15:48 | -33.93742 | 151.17165 | 34 ft | 23 kts | 347° |
| 2026-04-24 15:48 | -33.93575 | 151.17120 | 34 ft | 26 kts | 348° |
| 2026-04-24 15:49 | -33.93392 | 151.17074 | 34 ft | 28 kts | 347° |
| 2026-04-24 15:49 | -33.93218 | 151.16957 | 35 ft | 30 kts | 340° |
| 2026-04-24 15:49 | -33.93028 | 151.16919 | 35 ft | 23 kts | 12° |
| 2026-04-24 15:49 | -33.92972 | 151.17019 | 35 ft | 0 kts | 78° |
| 2026-04-24 15:50 | -33.92969 | 151.17033 | 35 ft | 5 kts | 78° |
| 2026-04-24 15:50 | -33.92965 | 151.17129 | 35 ft | 18 kts | 108° |
| 2026-04-24 15:51 | -33.93038 | 151.17187 | 35 ft | 0 kts | 168° |
| 2026-04-24 15:51 | -33.93039 | 151.17187 | 35 ft | 0 kts | 168° |
| 2026-04-24 15:51 | -33.93218 | 151.17233 | 36 ft | 65 kts | 167° |
| 2026-04-24 15:51 | -33.93922 | 151.17415 | 31 ft | 138 kts | 168° |
| 2026-04-24 15:52 | -33.94770 | 151.17635 | 34 ft | 80 kts | 168° |
| 2026-04-24 15:52 | -33.95099 | 151.17722 | 32 ft | 37 kts | 168° |
| 2026-04-24 15:52 | -33.95247 | 151.17691 | 33 ft | 21 kts | 245° |
| 2026-04-24 15:52 | -33.95218 | 151.17547 | 34 ft | 18 kts | 336° |
| 2026-04-24 15:53 | -33.95098 | 151.17514 | 34 ft | 18 kts | 347° |
| 2026-04-24 15:53 | -33.94976 | 151.17484 | 34 ft | 18 kts | 352° |
| 2026-04-24 15:53 | -33.94854 | 151.17476 | 34 ft | 18 kts | 1° |
| 2026-04-24 15:53 | -33.94738 | 151.17431 | 35 ft | 18 kts | 338° |
| 2026-04-24 15:54 | -33.94619 | 151.17393 | 35 ft | 18 kts | 344° |
| 2026-04-24 15:54 | -33.94498 | 151.17360 | 35 ft | 18 kts | 348° |
| 2026-04-24 15:54 | -33.94377 | 151.17327 | 35 ft | 18 kts | 347° |
| 2026-04-24 15:54 | -33.94258 | 151.17297 | 34 ft | 17 kts | 349° |
| 2026-04-24 15:55 | -33.94144 | 151.17270 | 33 ft | 17 kts | 348° |
| 2026-04-24 15:55 | -33.94030 | 151.17240 | 34 ft | 17 kts | 347° |
| 2026-04-24 15:55 | -33.93917 | 151.17209 | 34 ft | 17 kts | 348° |
| 2026-04-24 15:55 | -33.93803 | 151.17179 | 34 ft | 17 kts | 348° |
| 2026-04-24 15:56 | -33.93689 | 151.17150 | 34 ft | 17 kts | 347° |
| 2026-04-24 15:56 | -33.93576 | 151.17119 | 34 ft | 17 kts | 347° |
| 2026-04-24 15:56 | -33.93462 | 151.17088 | 34 ft | 17 kts | 347° |
| 2026-04-24 15:56 | -33.93349 | 151.17055 | 35 ft | 17 kts | 339° |
| 2026-04-24 15:57 | -33.93258 | 151.16974 | 35 ft | 17 kts | 334° |
| 2026-04-24 15:57 | -33.93146 | 151.16934 | 35 ft | 17 kts | 347° |
| 2026-04-24 15:57 | -33.93032 | 151.16914 | 35 ft | 17 kts | 11° |
| 2026-04-24 15:57 | -33.92972 | 151.17023 | 35 ft | 17 kts | 75° |
| 2026-04-24 15:58 | -33.92972 | 151.17158 | 35 ft | 13 kts | 126° |
| 2026-04-24 15:58 | -33.93020 | 151.17181 | 35 ft | 0 kts | 166° |
| 2026-04-24 15:58 | -33.93053 | 151.17190 | 35 ft | 30 kts | 168° |
| 2026-04-24 15:58 | -33.93637 | 151.17343 | 31 ft | 141 kts | 167° |
| 2026-04-24 15:59 | -33.94892 | 151.17662 | 377 ft | 209 kts | 168° |
| 2026-04-24 15:59 | -33.96355 | 151.18026 | 1776 ft | 219 kts | 167° |
| 2026-04-24 15:59 | -33.97953 | 151.18222 | 2318 ft | 241 kts | 186° |
| 2026-04-24 15:59 | -33.99643 | 151.17926 | 3049 ft | 250 kts | 187° |
| 2026-04-24 16:00 | -34.01415 | 151.17678 | 3839 ft | 262 kts | 185° |
| 2026-04-24 16:00 | -34.03247 | 151.17594 | 4613 ft | 266 kts | 170° |
| 2026-04-24 16:00 | -34.05021 | 151.18188 | 5304 ft | 266 kts | 160° |
| 2026-04-24 16:00 | -34.06814 | 151.18856 | 6172 ft | 272 kts | 162° |
| 2026-04-24 16:01 | -34.08650 | 151.19486 | 7117 ft | 276 kts | 162° |
| 2026-04-24 16:01 | -34.10512 | 151.20112 | 8029 ft | 279 kts | 163° |
| 2026-04-24 16:01 | -34.12393 | 151.20741 | 8941 ft | 283 kts | 163° |
| 2026-04-24 16:01 | -34.14278 | 151.21371 | 9830 ft | 287 kts | 163° |
| 2026-04-24 16:02 | -34.16230 | 151.22023 | 10557 ft | 299 kts | 163° |
| 2026-04-24 16:02 | -34.18300 | 151.22581 | 11023 ft | 312 kts | 176° |
| 2026-04-24 16:02 | -34.20457 | 151.22107 | 11720 ft | 322 kts | 205° |
| 2026-04-24 16:02 | -34.22248 | 151.20480 | 12582 ft | 324 kts | 227° |
| 2026-04-24 16:03 | -34.23733 | 151.18399 | 13376 ft | 330 kts | 229° |
| 2026-04-24 16:03 | -34.25021 | 151.16101 | 14134 ft | 336 kts | 247° |
| 2026-04-24 16:03 | -34.25441 | 151.13318 | 14907 ft | 341 kts | 271° |
| 2026-04-24 16:03 | -34.25049 | 151.10492 | 15699 ft | 343 kts | 283° |
| 2026-04-24 16:04 | -34.24321 | 151.07725 | 16335 ft | 349 kts | 297° |
| 2026-04-24 16:04 | -34.22789 | 151.05430 | 17020 ft | 356 kts | 323° |
| 2026-04-24 16:04 | -34.20620 | 151.04001 | 17874 ft | 357 kts | 343° |
| 2026-04-24 16:04 | -34.18193 | 151.03339 | 18687 ft | 360 kts | 351° |
| 2026-04-24 16:05 | -34.13181 | 151.02269 | 20064 ft | 371 kts | 350° |
| 2026-04-24 16:05 | -34.10633 | 151.01670 | 20790 ft | 376 kts | 347° |
| 2026-04-24 16:06 | -34.05525 | 150.99958 | 22200 ft | 386 kts | 344° |
| 2026-04-24 16:06 | -34.02927 | 150.99067 | 22900 ft | 391 kts | 345° |
| 2026-04-24 16:06 | -33.98183 | 150.95923 | 23913 ft | 405 kts | 311° |
| 2026-04-24 16:07 | -33.96649 | 150.93069 | 24016 ft | 418 kts | 294° |
| 2026-04-24 16:07 | -33.95382 | 150.89836 | 24144 ft | 436 kts | 294° |
| 2026-04-24 16:07 | -33.92696 | 150.82985 | 24525 ft | 465 kts | 294° |
| 2026-04-24 16:08 | -33.91285 | 150.79443 | 24904 ft | 473 kts | 294° |
| 2026-04-24 16:08 | -33.88384 | 150.72259 | 25931 ft | 481 kts | 294° |
| 2026-04-24 16:09 | -33.85411 | 150.64955 | 26908 ft | 490 kts | 294° |
| 2026-04-24 16:09 | -33.83912 | 150.61281 | 27447 ft | 495 kts | 294° |
| 2026-04-24 16:09 | -33.82893 | 150.58785 | 27576 ft | 501 kts | 294° |
| 2026-04-24 16:09 | -33.80872 | 150.53839 | 28896 ft | 477 kts | 295° |
| 2026-04-24 16:10 | -33.76619 | 150.43452 | 31332 ft | 459 kts | 294° |
| 2026-04-24 16:11 | -33.73781 | 150.36521 | 32015 ft | 466 kts | 296° |
| 2026-04-24 16:11 | -33.70873 | 150.29398 | 32144 ft | 482 kts | 293° |
| 2026-04-24 16:12 | -33.68626 | 150.21972 | 33096 ft | 476 kts | 287° |
| 2026-04-24 16:12 | -33.67792 | 150.18687 | 33451 ft | 475 kts | 286° |
| 2026-04-24 16:12 | -33.65911 | 150.11207 | 33891 ft | 489 kts | 283° |
| 2026-04-24 16:13 | -33.64892 | 150.07270 | 33971 ft | 497 kts | 283° |
| 2026-04-24 16:13 | -33.62748 | 149.99281 | 34382 ft | 505 kts | 284° |
| 2026-04-24 16:14 | -33.60553 | 149.91324 | 35285 ft | 499 kts | 284° |
| 2026-04-24 16:14 | -33.59463 | 149.87386 | 35650 ft | 497 kts | 284° |
| 2026-04-24 16:14 | -33.57288 | 149.79520 | 36280 ft | 496 kts | 284° |
| 2026-04-24 16:15 | -33.56556 | 149.76869 | 36450 ft | 497 kts | 284° |
| 2026-04-24 16:15 | -33.54017 | 149.67680 | 36496 ft | 499 kts | 284° |
| 2026-04-24 16:16 | -33.50759 | 149.55957 | 36505 ft | 491 kts | 284° |
| 2026-04-24 16:17 | -33.45353 | 149.36588 | 36506 ft | 490 kts | 284° |
| 2026-04-24 16:18 | -33.40994 | 149.21073 | 36489 ft | 492 kts | 284° |